createdAt,value
2022-11-25T00:02:05.582Z,9.57
2022-11-25T00:04:37.234Z,8.23
2022-11-25T00:07:10.229Z,8.03
2022-11-25T00:09:39.062Z,10.93
2022-11-25T00:12:08.073Z,9.07
2022-11-25T00:14:38.244Z,10.20
2022-11-25T00:17:07.177Z,8.60
2022-11-25T00:19:36.033Z,8.77
2022-11-25T00:22:04.764Z,10.33
2022-11-25T00:24:33.696Z,12.63
2022-11-25T00:27:05.086Z,7.00
2022-11-25T00:29:37.886Z,7.10
2022-11-25T00:32:06.861Z,7.20
2022-11-25T00:34:35.917Z,6.80
2022-11-25T00:37:05.025Z,8.73
2022-11-25T00:39:33.817Z,6.83
2022-11-25T00:42:31.085Z,7.47
2022-11-25T00:45:01.197Z,10.17
2022-11-25T00:47:30.419Z,8.00
2022-11-25T00:49:59.149Z,11.83
2022-11-25T00:52:29.145Z,9.03
2022-11-25T00:54:57.959Z,11.30
2022-11-25T00:57:26.631Z,7.67
2022-11-25T00:59:55.304Z,5.27
2022-11-25T01:02:25.461Z,5.00
2022-11-25T01:04:56.260Z,8.17
2022-11-25T01:07:25.145Z,4.87
2022-11-25T01:09:53.855Z,7.10
2022-11-25T01:12:22.675Z,5.03
2022-11-25T01:14:53.316Z,6.20
2022-11-25T01:17:22.076Z,5.33
2022-11-25T01:19:52.297Z,6.00
2022-11-25T01:22:22.020Z,5.80
2022-11-25T01:24:50.751Z,7.87
2022-11-25T01:27:21.960Z,7.53
2022-11-25T01:29:51.220Z,7.10
2022-11-25T01:32:20.072Z,7.83
2022-11-25T01:34:48.990Z,5.33
2022-11-25T01:37:19.127Z,7.67
2022-11-25T01:39:48.182Z,8.87
2022-11-25T01:42:18.775Z,7.80
2022-11-25T01:45:37.286Z,5.40
2022-11-25T01:48:18.096Z,7.10
2022-11-25T01:50:49.829Z,7.30
2022-11-25T01:53:23.031Z,6.73
2022-11-25T01:56:01.401Z,8.80
2022-11-25T01:58:37.273Z,10.03
2022-11-25T02:01:06.389Z,4.63
2022-11-25T02:03:40.544Z,7.27
2022-11-25T02:06:16.617Z,4.80
2022-11-25T02:08:52.013Z,6.27
2022-11-25T02:11:24.317Z,7.87
2022-11-25T02:13:54.662Z,4.67
2022-11-25T02:16:23.544Z,5.40
2022-11-25T02:18:56.639Z,5.27
2022-11-25T02:21:39.705Z,12.50
2022-11-25T02:24:19.657Z,7.43
2022-11-25T02:26:50.100Z,6.03
2022-11-25T02:29:18.993Z,10.43
2022-11-25T02:31:51.006Z,9.57
2022-11-25T02:34:19.873Z,11.80
2022-11-25T02:36:50.460Z,8.70
2022-11-25T02:39:22.593Z,7.07
2022-11-25T02:41:59.905Z,9.47
2022-11-25T02:44:29.211Z,12.00
2022-11-25T02:46:57.921Z,5.63
2022-11-25T02:49:26.728Z,7.80
2022-11-25T02:51:55.543Z,8.50
2022-11-25T02:54:24.475Z,8.57
2022-11-25T02:56:54.677Z,10.53
2022-11-25T02:59:23.460Z,10.87
2022-11-25T03:01:52.604Z,11.30
2022-11-25T03:04:21.638Z,6.97
2022-11-25T03:06:50.341Z,9.33
2022-11-25T03:09:19.531Z,7.57
2022-11-25T03:12:05.588Z,7.83
2022-11-25T03:14:36.125Z,6.90
2022-11-25T03:17:05.101Z,5.63
2022-11-25T03:19:33.901Z,5.60
2022-11-25T03:22:02.638Z,10.73
2022-11-25T03:24:31.789Z,6.43
2022-11-25T03:27:00.756Z,6.87
2022-11-25T03:29:29.893Z,8.43
2022-11-25T03:32:06.778Z,7.53
2022-11-25T03:34:38.645Z,8.60
2022-11-25T03:37:08.192Z,7.47
2022-11-25T03:39:37.282Z,5.97
2022-11-25T03:42:07.745Z,7.33
2022-11-25T03:44:36.795Z,6.87
2022-11-25T03:47:07.384Z,9.10
2022-11-25T03:49:36.114Z,9.97
2022-11-25T03:52:05.263Z,7.87
2022-11-25T03:54:34.366Z,6.70
2022-11-25T03:57:24.504Z,5.27
2022-11-25T03:59:54.237Z,6.50
2022-11-25T04:02:24.483Z,6.30
2022-11-25T04:04:53.469Z,10.27
2022-11-25T04:07:22.446Z,5.27
2022-11-25T04:09:51.290Z,6.83
2022-11-25T04:12:41.689Z,16.83
2022-11-25T04:15:11.516Z,14.00
2022-11-25T04:17:45.363Z,5.93
2022-11-25T04:20:16.144Z,7.67
2022-11-25T04:22:48.957Z,8.97
2022-11-25T04:25:19.490Z,8.60
2022-11-25T04:27:49.420Z,6.73
2022-11-25T04:30:22.478Z,8.50
2022-11-25T04:32:52.992Z,7.70
2022-11-25T04:35:22.911Z,7.80
2022-11-25T04:37:55.423Z,7.17
2022-11-25T04:40:26.246Z,8.20
2022-11-25T04:43:12.800Z,10.43
2022-11-25T04:46:13.001Z,6.70
2022-11-25T04:48:39.299Z,6.40
2022-11-25T04:51:08.161Z,6.83
2022-11-25T04:53:38.075Z,10.97
2022-11-25T04:56:09.082Z,6.03
2022-11-25T04:59:01.299Z,6.53
2022-11-25T05:01:30.687Z,7.07
2022-11-25T05:04:11.064Z,5.73
2022-11-25T05:06:40.617Z,9.10
2022-11-25T05:09:11.240Z,7.47
2022-11-25T05:11:42.589Z,6.03
2022-11-25T05:14:11.687Z,6.23
2022-11-25T05:16:42.181Z,4.97
2022-11-25T05:19:13.519Z,4.60
2022-11-25T05:21:42.719Z,6.50
2022-11-25T05:24:11.891Z,7.83
2022-11-25T05:26:43.568Z,5.53
2022-11-25T05:29:14.918Z,5.60
2022-11-25T05:31:44.764Z,6.80
2022-11-25T05:34:17.963Z,5.30
2022-11-25T05:37:40.401Z,4.53
2022-11-25T05:40:13.036Z,4.23
2022-11-25T05:43:03.209Z,5.23
2022-11-25T05:45:34.854Z,11.43
2022-11-25T05:48:06.389Z,7.00
2022-11-25T05:50:39.085Z,6.23
2022-11-25T05:53:34.396Z,6.07
2022-11-25T05:56:08.289Z,5.30
2022-11-25T05:59:13.233Z,7.43
2022-11-25T06:01:55.304Z,7.63
2022-11-25T06:04:24.562Z,9.23
2022-11-25T06:06:54.888Z,7.93
2022-11-25T06:09:24.901Z,10.13
2022-11-25T06:11:55.513Z,9.67
2022-11-25T06:14:24.912Z,7.37
2022-11-25T06:16:54.911Z,7.77
2022-11-25T06:19:32.636Z,7.90
2022-11-25T06:22:02.949Z,7.70
2022-11-25T06:24:32.187Z,7.43
2022-11-25T06:27:06.669Z,7.87
2022-11-25T06:29:36.696Z,6.70
2022-11-25T06:32:06.203Z,7.50
2022-11-25T06:34:43.064Z,10.13
2022-11-25T06:37:51.652Z,7.73
2022-11-25T06:40:20.749Z,11.13
2022-11-25T06:42:49.504Z,6.53
2022-11-25T06:45:18.947Z,6.77
2022-11-25T06:47:47.697Z,6.50
2022-11-25T06:50:16.656Z,4.90
2022-11-25T06:52:45.669Z,6.17
2022-11-25T06:55:15.755Z,6.80
2022-11-25T06:57:44.625Z,7.73
2022-11-25T07:00:14.755Z,9.93
2022-11-25T07:02:48.342Z,8.20
2022-11-25T07:05:17.716Z,11.27
2022-11-25T07:07:46.440Z,8.30
2022-11-25T07:10:17.589Z,11.13
2022-11-25T07:12:46.961Z,12.93
2022-11-25T07:15:15.816Z,8.90
2022-11-25T07:17:44.632Z,7.87
2022-11-25T07:20:14.355Z,7.50
2022-11-25T07:22:43.086Z,10.07
2022-11-25T07:25:12.097Z,6.67
2022-11-25T07:27:42.209Z,13.17
2022-11-25T07:31:21.253Z,9.63
2022-11-25T07:33:02.154Z,9.70
2022-11-25T07:35:30.949Z,5.83
2022-11-25T07:37:59.704Z,8.70
2022-11-25T07:40:28.466Z,7.40
2022-11-25T07:42:58.734Z,10.40
2022-11-25T07:45:30.002Z,10.63
2022-11-25T07:48:10.172Z,12.77
2022-11-25T07:50:39.707Z,13.37
2022-11-25T07:53:08.662Z,10.07
2022-11-25T07:55:37.779Z,12.57
2022-11-25T07:58:07.969Z,11.27
2022-11-25T08:00:37.010Z,7.73
2022-11-25T08:03:05.843Z,8.40
2022-11-25T08:05:35.323Z,12.17
2022-11-25T08:08:04.213Z,8.47
2022-11-25T08:10:32.988Z,8.27
2022-11-25T08:13:02.591Z,12.50
2022-11-25T08:15:34.424Z,12.40
2022-11-25T08:18:03.290Z,10.47
2022-11-25T08:20:32.042Z,8.70
2022-11-25T08:23:00.883Z,11.20
2022-11-25T08:25:31.852Z,13.77
2022-11-25T08:28:01.711Z,14.63
2022-11-25T08:30:32.107Z,13.27
2022-11-25T08:33:01.138Z,14.33
2022-11-25T08:35:29.860Z,17.17
2022-11-25T08:37:59.961Z,9.53
2022-11-25T08:40:28.740Z,13.70
2022-11-25T08:42:57.508Z,19.30
2022-11-25T08:45:26.357Z,17.20
2022-11-25T08:47:56.674Z,12.73
2022-11-25T08:50:25.811Z,12.77
2022-11-25T08:52:54.621Z,14.30
2022-11-25T08:55:26.188Z,12.50
2022-11-25T08:57:55.773Z,8.00
2022-11-25T09:00:24.746Z,14.57
2022-11-25T09:02:53.604Z,15.93
2022-11-25T09:05:24.076Z,10.67
2022-11-25T09:07:52.887Z,6.70
2022-11-25T09:10:21.755Z,12.00
2022-11-25T09:12:50.550Z,13.03
2022-11-25T09:15:19.437Z,8.73
2022-11-25T09:17:48.373Z,13.37
2022-11-25T09:20:17.222Z,13.63
2022-11-25T09:22:47.379Z,11.80
2022-11-25T09:25:16.238Z,12.20
2022-11-25T09:27:44.915Z,9.87
2022-11-25T09:30:16.977Z,12.63
2022-11-25T09:32:49.596Z,9.33
2022-11-25T09:35:18.997Z,10.13
2022-11-25T09:41:06.322Z,10.47
2022-11-25T09:44:06.445Z,8.20
2022-11-25T09:46:55.472Z,9.43
2022-11-25T09:49:53.074Z,11.00
2022-11-25T09:52:33.002Z,10.90
2022-11-25T09:55:12.855Z,7.47
2022-11-25T09:58:15.286Z,10.73
2022-11-25T10:00:47.285Z,6.90
2022-11-25T10:03:32.203Z,8.73
2022-11-25T10:06:08.123Z,8.97
2022-11-25T10:08:41.171Z,6.73
2022-11-25T10:11:27.928Z,12.30
2022-11-25T10:14:04.615Z,11.03
2022-11-25T10:16:47.233Z,20.57
2022-11-25T10:19:37.827Z,17.67
2022-11-25T10:22:24.141Z,17.47
2022-11-25T10:24:57.841Z,19.47
2022-11-25T10:27:42.821Z,20.53
2022-11-25T10:30:20.074Z,22.87
2022-11-25T10:33:00.880Z,24.37
2022-11-25T10:35:38.044Z,18.17
2022-11-25T10:38:19.324Z,17.87
2022-11-25T10:40:52.059Z,20.83
2022-11-25T10:43:26.017Z,32.37
2022-11-25T10:46:11.882Z,21.27
2022-11-25T10:49:01.684Z,36.40
2022-11-25T10:51:45.650Z,33.87
2022-11-25T10:54:25.521Z,27.53
2022-11-25T10:56:59.383Z,20.10
2022-11-25T10:59:33.425Z,14.87
2022-11-25T11:02:20.730Z,24.47
2022-11-25T11:05:01.688Z,16.40
2022-11-25T11:07:34.317Z,13.77
2022-11-25T11:10:21.286Z,11.33
2022-11-25T11:12:59.759Z,15.23
2022-11-25T11:15:32.847Z,8.90
2022-11-25T11:18:21.757Z,12.37
2022-11-25T11:20:54.232Z,12.27
2022-11-25T11:23:23.211Z,20.57
2022-11-25T11:26:02.303Z,16.00
2022-11-25T11:28:42.457Z,20.17
2022-11-25T11:31:25.121Z,18.07
2022-11-25T11:34:04.630Z,8.13
2022-11-25T11:37:04.200Z,12.67
2022-11-25T11:40:13.792Z,9.00
2022-11-25T11:43:02.969Z,8.90
2022-11-25T11:45:55.323Z,11.57
2022-11-25T11:48:39.719Z,9.30
2022-11-25T11:51:21.764Z,6.53
2022-11-25T11:54:07.973Z,8.73
2022-11-25T11:56:43.954Z,11.53
2022-11-25T11:59:50.374Z,8.20
2022-11-25T12:02:32.373Z,8.87
2022-11-25T12:05:16.797Z,6.57
2022-11-25T12:07:59.591Z,7.30
2022-11-25T12:10:35.127Z,9.80
2022-11-25T12:13:18.555Z,7.63
2022-11-25T12:21:02.748Z,10.30
2022-11-25T12:23:46.533Z,12.50
2022-11-25T12:26:28.748Z,9.77
2022-11-25T12:29:06.843Z,6.87
2022-11-25T12:31:45.873Z,5.63
2022-11-25T12:34:27.982Z,5.00
2022-11-25T12:37:14.808Z,7.87
2022-11-25T12:40:02.695Z,6.37
2022-11-25T12:42:35.024Z,7.20
2022-11-25T12:45:13.565Z,6.87
2022-11-25T12:47:42.526Z,7.13
2022-11-25T12:50:19.531Z,9.87
2022-11-25T12:53:01.838Z,6.60
2022-11-25T12:55:32.780Z,7.03
2022-11-25T12:58:42.479Z,7.70
2022-11-25T13:01:44.317Z,9.57
2022-11-25T13:04:42.219Z,6.40
2022-11-25T13:07:41.393Z,9.20
2022-11-25T13:10:42.127Z,10.73
2022-11-25T13:13:39.843Z,6.17
2022-11-25T13:16:10.695Z,7.23
2022-11-25T13:18:45.335Z,5.00
2022-11-25T13:21:16.303Z,7.53
2022-11-25T13:23:56.378Z,6.00
2022-11-25T13:26:51.422Z,5.50
2022-11-25T13:29:56.839Z,7.90
2022-11-25T13:32:45.041Z,7.13
2022-11-25T13:35:56.405Z,4.30
2022-11-25T13:39:08.080Z,8.17
2022-11-25T13:41:49.134Z,11.57
2022-11-25T13:44:32.638Z,8.47
2022-11-25T13:47:24.557Z,6.67
2022-11-25T13:49:56.735Z,9.13
2022-11-25T13:52:42.330Z,6.63
2022-11-25T13:55:27.544Z,5.27
2022-11-25T13:58:19.628Z,5.43
2022-11-25T14:01:29.463Z,5.23
2022-11-25T14:04:01.740Z,8.33
2022-11-25T14:07:08.799Z,8.37
2022-11-25T14:10:08.224Z,6.77
2022-11-25T14:13:06.796Z,7.20
2022-11-25T14:16:03.754Z,10.07
2022-11-25T14:19:53.026Z,9.47
2022-11-25T14:22:38.646Z,9.67
2022-11-25T14:25:21.020Z,11.60
2022-11-25T14:28:03.698Z,13.53
2022-11-25T14:30:35.114Z,8.77
2022-11-25T14:33:08.223Z,8.43
2022-11-25T14:35:45.720Z,8.37
2022-11-25T14:38:24.436Z,9.27
2022-11-25T14:41:00.305Z,9.63
2022-11-25T14:43:31.721Z,10.23
2022-11-25T14:46:16.964Z,6.77
2022-11-25T14:48:46.325Z,10.03
2022-11-25T14:51:25.095Z,7.73
2022-11-25T14:53:57.850Z,5.77
2022-11-25T14:57:00.175Z,10.63
2022-11-25T14:59:44.982Z,8.07
2022-11-25T15:02:30.106Z,10.37
2022-11-25T15:05:19.479Z,12.50
2022-11-25T15:08:01.007Z,12.70
2022-11-25T15:10:43.731Z,11.40
2022-11-25T15:13:26.145Z,12.10
2022-11-25T15:15:57.283Z,16.40
2022-11-25T15:18:27.074Z,15.43
2022-11-25T15:21:00.581Z,18.37
2022-11-25T15:23:45.887Z,18.93
2022-11-25T15:26:21.105Z,15.70
2022-11-25T15:28:56.954Z,18.10
2022-11-25T15:31:31.772Z,12.67
2022-11-25T15:34:08.053Z,12.30
2022-11-25T15:36:36.877Z,12.87
2022-11-25T15:39:24.649Z,11.77
2022-11-25T15:41:56.671Z,9.60
2022-11-25T15:44:29.633Z,10.10
2022-11-25T15:47:05.158Z,10.40
2022-11-25T15:49:35.760Z,9.33
2022-11-25T15:52:10.542Z,7.30
2022-11-25T15:54:45.566Z,8.27
2022-11-25T15:57:20.757Z,8.40
2022-11-25T16:00:04.202Z,11.77
2022-11-25T16:02:53.692Z,16.17
2022-11-25T16:05:31.886Z,11.20
2022-11-25T16:08:33.837Z,10.23
2022-11-25T16:11:20.353Z,9.33
2022-11-25T16:13:51.091Z,12.50
2022-11-25T16:16:27.634Z,10.43
2022-11-25T16:19:17.871Z,20.80
2022-11-25T16:21:59.873Z,11.93
2022-11-25T16:24:41.688Z,11.03
2022-11-25T16:27:22.879Z,14.30
2022-11-25T16:29:56.870Z,18.23
2022-11-25T16:32:28.811Z,24.53
2022-11-25T16:35:07.409Z,25.83
2022-11-25T16:37:36.204Z,24.10
2022-11-25T16:40:06.550Z,28.20
2022-11-25T16:42:37.822Z,22.20
2022-11-25T16:45:20.906Z,23.87
2022-11-25T16:47:50.990Z,27.87
2022-11-25T16:50:22.234Z,31.03
2022-11-25T16:52:51.489Z,33.43
2022-11-25T16:55:20.679Z,25.43
2022-11-25T16:57:54.452Z,28.37
2022-11-25T17:00:25.785Z,32.67
2022-11-25T17:02:54.576Z,28.00
2022-11-25T17:05:26.710Z,29.30
2022-11-25T17:07:56.520Z,54.50
2022-11-25T17:10:25.475Z,26.50
2022-11-25T17:12:57.084Z,27.00
2022-11-25T17:15:33.914Z,27.90
2022-11-25T17:18:04.576Z,22.03
2022-11-25T17:20:33.492Z,20.30
2022-11-25T17:23:02.400Z,20.13
2022-11-25T17:25:36.651Z,17.70
2022-11-25T17:28:07.547Z,15.27
2022-11-25T17:30:39.451Z,15.63
2022-11-25T17:33:14.700Z,19.07
2022-11-25T17:35:44.074Z,18.50
2022-11-25T17:38:21.144Z,19.60
2022-11-25T17:40:50.769Z,17.67
2022-11-25T17:43:22.393Z,20.20
2022-11-25T17:45:51.289Z,18.17
2022-11-25T17:48:29.296Z,15.00
2022-11-25T17:50:59.504Z,16.00
2022-11-25T17:53:29.843Z,14.40
2022-11-25T17:55:58.729Z,12.73
2022-11-25T17:58:30.880Z,18.93
2022-11-25T18:00:59.906Z,17.90
2022-11-25T18:03:28.786Z,15.23
2022-11-25T18:05:57.522Z,15.07
2022-11-25T18:08:26.444Z,22.40
2022-11-25T18:10:55.577Z,21.90
2022-11-25T18:13:25.724Z,20.87
2022-11-25T18:15:59.479Z,17.90
2022-11-25T18:18:30.631Z,20.60
2022-11-25T18:21:00.899Z,25.33
2022-11-25T18:23:34.720Z,21.47
2022-11-25T18:26:23.631Z,31.70
2022-11-25T18:28:55.680Z,22.07
2022-11-25T18:31:28.492Z,18.93
2022-11-25T18:33:59.071Z,30.60
2022-11-25T18:36:33.438Z,26.80
2022-11-25T18:39:05.998Z,21.10
2022-11-25T18:41:37.629Z,22.57
2022-11-25T18:44:26.049Z,27.27
2022-11-25T18:47:14.205Z,25.80
2022-11-25T18:49:43.256Z,24.67
2022-11-25T18:52:12.979Z,21.47
2022-11-25T18:54:45.595Z,21.40
2022-11-25T18:57:16.831Z,22.07
2022-11-25T18:59:55.945Z,23.30
2022-11-25T19:02:36.591Z,17.47
2022-11-25T19:05:17.978Z,20.47
2022-11-25T19:07:48.537Z,19.53
2022-11-25T19:10:19.563Z,21.80
2022-11-25T19:13:17.296Z,18.33
2022-11-25T19:15:47.629Z,19.77
2022-11-25T19:18:26.326Z,21.60
2022-11-25T19:20:55.579Z,18.83
2022-11-25T19:23:28.319Z,18.63
2022-11-25T19:26:02.958Z,17.33
2022-11-25T19:28:33.134Z,19.70
2022-11-25T19:31:04.999Z,19.27
2022-11-25T19:33:40.115Z,13.77
2022-11-25T19:36:18.458Z,18.93
2022-11-25T19:38:47.149Z,19.17
2022-11-25T19:41:15.950Z,16.50
2022-11-25T19:43:44.665Z,16.10
2022-11-25T19:46:30.082Z,17.20
2022-11-25T19:49:07.422Z,18.53
2022-11-25T19:51:36.624Z,22.63
2022-11-25T19:54:05.711Z,20.17
2022-11-25T19:56:37.551Z,20.87
2022-11-25T19:59:06.243Z,22.53
2022-11-25T20:01:39.086Z,20.03
2022-11-25T20:04:17.665Z,21.47
2022-11-25T20:06:46.745Z,23.03
2022-11-25T20:09:15.528Z,20.10
2022-11-25T20:11:44.399Z,19.27
2022-11-25T20:14:13.539Z,17.23
2022-11-25T20:16:43.269Z,17.60
2022-11-25T20:19:19.555Z,18.40
2022-11-25T20:21:48.988Z,18.20
2022-11-25T20:24:21.780Z,15.73
2022-11-25T20:26:51.686Z,22.10
2022-11-25T20:29:27.513Z,17.10
2022-11-25T20:31:59.668Z,16.17
2022-11-25T20:34:31.300Z,15.63
2022-11-25T20:37:00.405Z,18.00
2022-11-25T20:39:29.276Z,15.10
2022-11-25T20:41:57.970Z,20.17
2022-11-25T20:44:28.560Z,17.97
2022-11-25T20:46:57.344Z,18.57
2022-11-25T20:49:29.423Z,16.40
2022-11-25T20:51:58.923Z,19.70
2022-11-25T20:54:27.851Z,20.03
2022-11-25T20:56:57.533Z,16.97
2022-11-25T20:59:28.506Z,18.83
2022-11-25T21:01:57.379Z,17.27
2022-11-25T21:04:26.202Z,18.43
2022-11-25T21:06:56.636Z,19.73
2022-11-25T21:09:34.685Z,17.43
2022-11-25T21:12:04.368Z,21.33
2022-11-25T21:14:33.232Z,22.17
2022-11-25T21:17:02.074Z,20.53
2022-11-25T21:19:30.837Z,25.40
2022-11-25T21:22:01.472Z,16.97
2022-11-25T21:24:34.145Z,17.73
2022-11-25T21:27:09.967Z,18.77
2022-11-25T21:29:43.172Z,18.70
2022-11-25T21:32:22.736Z,20.60
2022-11-25T21:34:51.938Z,19.43
2022-11-25T21:37:31.616Z,19.13
2022-11-25T21:40:01.141Z,16.40
2022-11-25T21:42:32.613Z,15.77
2022-11-25T21:45:01.424Z,17.73
2022-11-25T21:47:31.750Z,15.30
2022-11-25T21:50:00.515Z,16.33
2022-11-25T21:52:30.694Z,14.27
2022-11-25T21:55:00.557Z,16.90
2022-11-25T21:57:31.204Z,17.53
2022-11-25T22:00:00.246Z,15.60
2022-11-25T22:02:29.107Z,14.87
2022-11-25T22:04:59.790Z,16.93
2022-11-25T22:07:31.129Z,18.53
2022-11-25T22:10:00.028Z,27.73
2022-11-25T22:12:35.385Z,18.03
2022-11-25T22:15:14.596Z,17.70
2022-11-25T22:17:43.861Z,16.63
2022-11-25T22:20:29.047Z,17.03
2022-11-25T22:22:59.246Z,17.77
2022-11-25T22:25:31.503Z,15.87
2022-11-25T22:28:00.459Z,15.20
2022-11-25T22:30:29.227Z,17.73
2022-11-25T22:33:04.377Z,14.97
2022-11-25T22:35:33.110Z,20.40
2022-11-25T22:38:03.602Z,17.80
2022-11-25T22:40:32.347Z,18.60
2022-11-25T22:43:01.433Z,17.70
2022-11-25T22:45:34.475Z,16.60
2022-11-25T22:48:07.743Z,13.50
2022-11-25T22:50:37.056Z,16.10
2022-11-25T22:53:16.501Z,16.33
2022-11-25T22:55:46.463Z,15.33
2022-11-25T22:58:16.059Z,15.67
2022-11-25T23:00:47.944Z,20.03
2022-11-25T23:03:22.151Z,15.40
2022-11-25T23:05:53.364Z,17.67
2022-11-25T23:08:25.892Z,16.73
2022-11-25T23:10:56.309Z,15.33
2022-11-25T23:13:26.204Z,19.57
2022-11-25T23:15:57.656Z,14.60
2022-11-25T23:18:35.406Z,18.83
2022-11-25T23:21:08.590Z,17.17
2022-11-25T23:23:38.831Z,21.03
2022-11-25T23:26:11.676Z,19.30
2022-11-25T23:28:40.602Z,17.90
2022-11-25T23:31:14.124Z,18.80
2022-11-25T23:33:46.421Z,17.33
2022-11-25T23:36:19.353Z,21.00
2022-11-25T23:38:54.775Z,20.13
2022-11-25T23:41:27.269Z,24.83
2022-11-25T23:43:56.599Z,21.83
2022-11-25T23:46:32.916Z,27.47
2022-11-25T23:49:04.559Z,58.80
2022-11-25T23:51:33.390Z,27.23
2022-11-25T23:54:03.734Z,26.17
2022-11-25T23:56:32.415Z,44.73
2022-11-25T23:59:01.356Z,29.10
